Blue Galaxy — SWDA — position and weather

sailwx.info

Track history (hours):
 
Tides and Currents Weather Stations Pressure Air Temp Water Temp Dewpoint Dewpoint Depression Visibility Wind Speed Wind Dir Waves Ship Positions

Blue Galaxy

Last reported at 2016-Dec-01 21:10 UTC. Time now 2016-Dec-04 06:13 UTC.
Position N 37°36' E 023°43'.

Length 192 m; draft 6.7 m.

Type: Passenger vessel. MMSI: 239672000.

Date/timePositionNaut miles runAvg speedWind from/ knotsBaromVisibWave heightAir tempDewpointWater temp
2016-Dec-01 21:10N 37°36' E 023°43'1321.0
2016-Dec-01 20:33N 37°48' E 023°37'9 8.9
2016-Dec-01 19:33N 37°57' E 023°38'0 0.0
2016-Dec-01 18:33N 37°57' E 023°38'0 0.0
2016-Dec-01 17:33N 37°57' E 023°38'0 0.0
2016-Dec-01 16:33N 37°57' E 023°38'0 0.0
2016-Dec-01 15:33N 37°57' E 023°38'0 0.0
2016-Dec-01 14:33N 37°57' E 023°38'0 0.0
2016-Dec-01 13:33N 37°57' E 023°38'0 0.0
2016-Dec-01 12:33N 37°57' E 023°38'0 0.0
2016-Dec-01 11:32N 37°57' E 023°38'0 0.0
2016-Dec-01 10:33N 37°57' E 023°38'0 0.0
2016-Dec-01 09:33N 37°57' E 023°38'7 6.9
2016-Dec-01 08:34N 37°50' E 023°40'14 0.4
2016-Nov-29 20:33N 37°36' E 023°43'1919.0
2016-Nov-29 19:33N 37°54' E 023°37'3 2.6
2016-Nov-29 18:33N 37°57' E 023°38'0 0.0
2016-Nov-29 17:33N 37°57' E 023°38'0 0.0
2016-Nov-29 16:33N 37°57' E 023°38'0 0.0
2016-Nov-29 15:33N 37°57' E 023°38'0 0.0
2016-Nov-29 14:33N 37°57' E 023°38'0 0.0
2016-Nov-29 13:33N 37°57' E 023°38'0 0.0
2016-Nov-29 12:33N 37°57' E 023°38'0 0.0
2016-Nov-29 11:33N 37°57' E 023°38'0 0.0
2016-Nov-29 10:33N 37°57' E 023°38'0 0.0
2016-Nov-29 09:33N 37°57' E 023°38'0 0.0
2016-Nov-29 08:33N 37°57' E 023°38'0 0.0
2016-Nov-29 07:33N 37°57' E 023°38'0 0.0
2016-Nov-29 06:33N 37°57' E 023°38'0 0.0
2016-Nov-29 05:33N 37°57' E 023°38'0 0.0
2016-Nov-29 04:33N 37°57' E 023°38'0 0.3
2016-Nov-29 03:34N 37°57' E 023°38'1716.7
2016-Nov-29 02:34N 37°41' E 023°45'2019.8
2016-Nov-29 01:33N 37°21' E 023°50'14 0.5
2016-Nov-27 20:31N 37°35' E 023°44'1819.4
2016-Nov-27 19:34N 37°52' E 023°37'5 4.5
2016-Nov-27 18:33N 37°57' E 023°38'0 0.0
2016-Nov-27 17:33N 37°57' E 023°38'0 0.0
2016-Nov-27 16:33N 37°57' E 023°38'0 0.0
2016-Nov-27 15:33N 37°57' E 023°38'0 0.0
2016-Nov-27 14:33N 37°57' E 023°38'0 0.0
2016-Nov-27 13:33N 37°57' E 023°38'0 0.0
2016-Nov-27 12:33N 37°57' E 023°38'0 0.0
2016-Nov-27 11:33N 37°57' E 023°38'0 0.0
2016-Nov-27 10:33N 37°57' E 023°38'0 0.0
2016-Nov-27 09:33N 37°57' E 023°38'0 0.0
2016-Nov-27 08:33N 37°57' E 023°38'0 0.0
2016-Nov-27 07:33N 37°57' E 023°38'0 0.0
2016-Nov-27 06:33N 37°57' E 023°38'0 0.0
2016-Nov-27 05:33N 37°57' E 023°38'0 0.0
2016-Nov-27 04:33N 37°57' E 023°38'0 0.1
2016-Nov-27 03:33N 37°57' E 023°38'1514.8
2016-Nov-27 02:33N 37°43' E 023°44'2120.3
2016-Nov-27 01:33N 37°23' E 023°50'19 0.7
2016-Nov-25 20:33N 37°41' E 023°42'1514.9
2016-Nov-25 19:33N 37°55' E 023°37'2 1.9
2016-Nov-25 18:33N 37°57' E 023°38'0 0.0
2016-Nov-25 17:33N 37°57' E 023°38'0 0.0
2016-Nov-25 16:33N 37°57' E 023°38'0 0.0
2016-Nov-25 15:33N 37°57' E 023°38'0 0.0
2016-Nov-25 14:33N 37°57' E 023°38'0 0.0
2016-Nov-25 13:33N 37°57' E 023°38'0 0.0
2016-Nov-25 12:33N 37°57' E 023°38'0 0.0
2016-Nov-25 11:33N 37°57' E 023°38'0 0.0
2016-Nov-25 10:33N 37°57' E 023°38'0 0.0
2016-Nov-25 09:33N 37°57' E 023°38'0 0.0
2016-Nov-25 08:33N 37°57' E 023°38'0 0.0
2016-Nov-25 07:33N 37°57' E 023°38'0 0.0
2016-Nov-25 06:33N 37°57' E 023°38'0 0.0
2016-Nov-25 05:33N 37°57' E 023°38'0 0.0
2016-Nov-25 04:33N 37°57' E 023°38'0 0.0
2016-Nov-25 03:33N 37°57' E 023°38'9 8.7
2016-Nov-25 02:34N 37°48' E 023°41'10 0.3
2016-Nov-23 20:33N 37°39' E 023°42'1818.1
2016-Nov-23 19:34N 37°56' E 023°37'1 1.1
2016-Nov-23 18:34N 37°57' E 023°38'0 0.0
2016-Nov-23 17:33N 37°57' E 023°38'0 0.0
2016-Nov-23 16:33N 37°57' E 023°38'0 0.0
2016-Nov-23 15:33N 37°57' E 023°38'0 0.0
2016-Nov-23 14:33N 37°57' E 023°38'0 0.0
2016-Nov-23 13:34N 37°57' E 023°38'0 0.0
2016-Nov-23 12:34N 37°57' E 023°38'0 0.0
2016-Nov-23 11:33N 37°57' E 023°38'0 0.0
2016-Nov-23 10:33N 37°57' E 023°38'0 0.0
2016-Nov-23 09:34N 37°57' E 023°38'0 0.0
2016-Nov-23 08:34N 37°57' E 023°38'0 0.0
2016-Nov-23 07:33N 37°57' E 023°38'0 0.0
2016-Nov-23 06:34N 37°57' E 023°38'0 0.1
2016-Nov-23 03:34N 37°57' E 023°38'1817.7
2016-Nov-23 02:33N 37°40' E 023°45'  
Track history (hours):
 
Tides and Currents Weather Stations Pressure Air Temp Water Temp Dewpoint Dewpoint Depression Visibility Wind Speed Wind Dir Waves Ship Positions

Blue Galaxy

Last reported at 2016-Dec-01 21:10 UTC. Time now 2016-Dec-04 06:13 UTC.
Position N 37°36' E 023°43'.

Length 192 m; draft 6.7 m.

Type: Passenger vessel. MMSI: 239672000.

Date/timePositionNaut miles runAvg speedWind from/ knotsBaromVisibWave heightAir tempDewpointWater temp
2016-Dec-01 21:10N 37°36' E 023°43'1321.0
2016-Dec-01 20:33N 37°48' E 023°37'9 8.9
2016-Dec-01 19:33N 37°57' E 023°38'0 0.0
2016-Dec-01 18:33N 37°57' E 023°38'0 0.0
2016-Dec-01 17:33N 37°57' E 023°38'0 0.0
2016-Dec-01 16:33N 37°57' E 023°38'0 0.0
2016-Dec-01 15:33N 37°57' E 023°38'0 0.0
2016-Dec-01 14:33N 37°57' E 023°38'0 0.0
2016-Dec-01 13:33N 37°57' E 023°38'0 0.0
2016-Dec-01 12:33N 37°57' E 023°38'0 0.0
2016-Dec-01 11:32N 37°57' E 023°38'0 0.0
2016-Dec-01 10:33N 37°57' E 023°38'0 0.0
2016-Dec-01 09:33N 37°57' E 023°38'7 6.9
2016-Dec-01 08:34N 37°50' E 023°40'14 0.4
2016-Nov-29 20:33N 37°36' E 023°43'1919.0
2016-Nov-29 19:33N 37°54' E 023°37'3 2.6
2016-Nov-29 18:33N 37°57' E 023°38'0 0.0
2016-Nov-29 17:33N 37°57' E 023°38'0 0.0
2016-Nov-29 16:33N 37°57' E 023°38'0 0.0
2016-Nov-29 15:33N 37°57' E 023°38'0 0.0
2016-Nov-29 14:33N 37°57' E 023°38'0 0.0
2016-Nov-29 13:33N 37°57' E 023°38'0 0.0
2016-Nov-29 12:33N 37°57' E 023°38'0 0.0
2016-Nov-29 11:33N 37°57' E 023°38'0 0.0
2016-Nov-29 10:33N 37°57' E 023°38'0 0.0
2016-Nov-29 09:33N 37°57' E 023°38'0 0.0
2016-Nov-29 08:33N 37°57' E 023°38'0 0.0
2016-Nov-29 07:33N 37°57' E 023°38'0 0.0
2016-Nov-29 06:33N 37°57' E 023°38'0 0.0
2016-Nov-29 05:33N 37°57' E 023°38'0 0.0
2016-Nov-29 04:33N 37°57' E 023°38'0 0.3
2016-Nov-29 03:34N 37°57' E 023°38'1716.7
2016-Nov-29 02:34N 37°41' E 023°45'2019.8
2016-Nov-29 01:33N 37°21' E 023°50'14 0.5
2016-Nov-27 20:31N 37°35' E 023°44'1819.4
2016-Nov-27 19:34N 37°52' E 023°37'5 4.5
2016-Nov-27 18:33N 37°57' E 023°38'0 0.0
2016-Nov-27 17:33N 37°57' E 023°38'0 0.0
2016-Nov-27 16:33N 37°57' E 023°38'0 0.0
2016-Nov-27 15:33N 37°57' E 023°38'0 0.0
2016-Nov-27 14:33N 37°57' E 023°38'0 0.0
2016-Nov-27 13:33N 37°57' E 023°38'0 0.0
2016-Nov-27 12:33N 37°57' E 023°38'0 0.0
2016-Nov-27 11:33N 37°57' E 023°38'0 0.0
2016-Nov-27 10:33N 37°57' E 023°38'0 0.0
2016-Nov-27 09:33N 37°57' E 023°38'0 0.0
2016-Nov-27 08:33N 37°57' E 023°38'0 0.0
2016-Nov-27 07:33N 37°57' E 023°38'0 0.0
2016-Nov-27 06:33N 37°57' E 023°38'0 0.0
2016-Nov-27 05:33N 37°57' E 023°38'0 0.0
2016-Nov-27 04:33N 37°57' E 023°38'0 0.1
2016-Nov-27 03:33N 37°57' E 023°38'1514.8
2016-Nov-27 02:33N 37°43' E 023°44'2120.3
2016-Nov-27 01:33N 37°23' E 023°50'19 0.7
2016-Nov-25 20:33N 37°41' E 023°42'1514.9
2016-Nov-25 19:33N 37°55' E 023°37'2 1.9
2016-Nov-25 18:33N 37°57' E 023°38'0 0.0
2016-Nov-25 17:33N 37°57' E 023°38'0 0.0
2016-Nov-25 16:33N 37°57' E 023°38'0 0.0
2016-Nov-25 15:33N 37°57' E 023°38'0 0.0
2016-Nov-25 14:33N 37°57' E 023°38'0 0.0
2016-Nov-25 13:33N 37°57' E 023°38'0 0.0
2016-Nov-25 12:33N 37°57' E 023°38'0 0.0
2016-Nov-25 11:33N 37°57' E 023°38'0 0.0
2016-Nov-25 10:33N 37°57' E 023°38'0 0.0
2016-Nov-25 09:33N 37°57' E 023°38'0 0.0
2016-Nov-25 08:33N 37°57' E 023°38'0 0.0
2016-Nov-25 07:33N 37°57' E 023°38'0 0.0
2016-Nov-25 06:33N 37°57' E 023°38'0 0.0
2016-Nov-25 05:33N 37°57' E 023°38'0 0.0
2016-Nov-25 04:33N 37°57' E 023°38'0 0.0
2016-Nov-25 03:33N 37°57' E 023°38'9 8.7
2016-Nov-25 02:34N 37°48' E 023°41'10 0.3
2016-Nov-23 20:33N 37°39' E 023°42'1818.1
2016-Nov-23 19:34N 37°56' E 023°37'1 1.1
2016-Nov-23 18:34N 37°57' E 023°38'0 0.0
2016-Nov-23 17:33N 37°57' E 023°38'0 0.0
2016-Nov-23 16:33N 37°57' E 023°38'0 0.0
2016-Nov-23 15:33N 37°57' E 023°38'0 0.0
2016-Nov-23 14:33N 37°57' E 023°38'0 0.0
2016-Nov-23 13:34N 37°57' E 023°38'0 0.0
2016-Nov-23 12:34N 37°57' E 023°38'0 0.0
2016-Nov-23 11:33N 37°57' E 023°38'0 0.0
2016-Nov-23 10:33N 37°57' E 023°38'0 0.0
2016-Nov-23 09:34N 37°57' E 023°38'0 0.0
2016-Nov-23 08:34N 37°57' E 023°38'0 0.0
2016-Nov-23 07:33N 37°57' E 023°38'0 0.0
2016-Nov-23 06:34N 37°57' E 023°38'0 0.1
2016-Nov-23 03:34N 37°57' E 023°38'1817.7
2016-Nov-23 02:33N 37°40' E 023°45'  

Dump ship's entire track history